createdAt,value
2023-03-26T00:01:33.607Z,2.15
2023-03-26T00:04:01.333Z,2.65
2023-03-26T00:06:36.828Z,3.10
2023-03-26T00:09:05.032Z,2.70
2023-03-26T00:11:32.029Z,2.60
2023-03-26T00:13:59.134Z,2.70
2023-03-26T00:16:29.836Z,3.08
2023-03-26T00:18:58.151Z,3.03
2023-03-26T00:21:28.022Z,2.90
2023-03-26T00:24:00.557Z,2.50
2023-03-26T00:26:29.678Z,2.30
2023-03-26T00:28:58.449Z,3.30
2023-03-26T00:31:25.513Z,2.75
2023-03-26T00:33:56.032Z,2.65
2023-03-26T00:36:27.694Z,3.50
2023-03-26T00:38:55.650Z,3.10
2023-03-26T00:41:31.092Z,2.70
2023-03-26T00:44:00.252Z,2.42
2023-03-26T00:46:30.780Z,2.83
2023-03-26T00:48:59.000Z,3.05
2023-03-26T00:51:28.386Z,2.90
2023-03-26T00:53:56.727Z,2.78
2023-03-26T00:56:24.039Z,3.05
2023-03-26T00:58:51.196Z,2.78
2023-03-26T01:01:28.651Z,3.03
2023-03-26T01:04:31.298Z,3.05
2023-03-26T01:07:02.915Z,3.80
2023-03-26T01:09:36.714Z,2.60
2023-03-26T01:12:07.443Z,2.60
2023-03-26T01:14:35.018Z,2.53
2023-03-26T01:17:04.734Z,3.03
2023-03-26T01:19:45.785Z,3.05
2023-03-26T01:22:26.570Z,2.38
2023-03-26T01:24:56.476Z,2.70
2023-03-26T01:27:44.213Z,3.08
2023-03-26T01:30:17.368Z,2.70
2023-03-26T01:33:14.253Z,2.17
2023-03-26T01:35:58.855Z,2.58
2023-03-26T01:38:46.918Z,2.65
2023-03-26T01:41:37.772Z,2.47
2023-03-26T01:44:15.411Z,2.58
2023-03-26T01:46:43.678Z,2.45
2023-03-26T01:49:13.293Z,2.70
2023-03-26T01:51:42.476Z,2.65
2023-03-26T01:54:20.217Z,2.63
2023-03-26T01:57:02.436Z,2.97
2023-03-26T02:00:09.112Z,2.58
2023-03-26T02:03:02.155Z,3.10
2023-03-26T02:05:44.190Z,2.15
2023-03-26T02:08:22.692Z,2.75
2023-03-26T02:10:58.281Z,2.70
2023-03-26T02:13:26.407Z,3.05
2023-03-26T02:15:59.330Z,2.80
2023-03-26T02:18:36.319Z,2.55
2023-03-26T02:21:12.491Z,1.95
2023-03-26T02:23:47.139Z,2.35
2023-03-26T02:26:18.163Z,2.50
2023-03-26T02:29:07.104Z,2.28
2023-03-26T02:31:36.865Z,2.42
2023-03-26T02:34:04.104Z,3.00
2023-03-26T02:36:36.004Z,2.38
2023-03-26T02:39:04.900Z,2.33
2023-03-26T02:41:35.569Z,2.92
2023-03-26T02:44:07.570Z,2.72
2023-03-26T02:46:53.821Z,1.48
2023-03-26T02:49:56.263Z,2.05
2023-03-26T02:52:37.146Z,1.70
2023-03-26T02:55:04.401Z,1.55
2023-03-26T02:57:32.581Z,1.40
2023-03-26T03:00:15.048Z,1.10
2023-03-26T03:02:48.141Z,1.70
2023-03-26T03:05:34.287Z,1.20
2023-03-26T03:08:21.532Z,1.33
2023-03-26T03:11:13.380Z,0.80
2023-03-26T03:13:49.336Z,1.42
2023-03-26T03:16:20.506Z,1.27
2023-03-26T03:18:54.581Z,1.15
2023-03-26T03:21:29.950Z,1.30
2023-03-26T03:24:00.281Z,1.42
2023-03-26T03:26:30.970Z,0.73
2023-03-26T03:29:04.294Z,1.10
2023-03-26T03:31:31.818Z,1.10
2023-03-26T03:34:03.642Z,1.35
2023-03-26T03:36:38.589Z,0.50
2023-03-26T03:39:24.144Z,1.17
2023-03-26T03:41:51.199Z,1.20
2023-03-26T03:44:18.400Z,0.70
2023-03-26T03:46:49.195Z,1.33
2023-03-26T03:49:16.477Z,1.35
2023-03-26T03:51:43.468Z,1.50
2023-03-26T03:54:19.458Z,1.30
2023-03-26T03:56:47.406Z,1.15
2023-03-26T03:59:15.578Z,2.13
2023-03-26T04:01:46.847Z,1.88
2023-03-26T04:04:25.522Z,0.73
2023-03-26T04:06:59.917Z,1.95
2023-03-26T04:09:33.609Z,2.10
2023-03-26T04:12:06.045Z,1.85
2023-03-26T04:14:40.355Z,1.92
2023-03-26T04:17:16.010Z,1.52
2023-03-26T04:19:44.994Z,2.40
2023-03-26T04:22:14.184Z,1.50
2023-03-26T04:24:54.504Z,1.95
2023-03-26T04:27:30.347Z,1.73
2023-03-26T04:30:08.381Z,1.17
2023-03-26T04:32:35.846Z,1.40
2023-03-26T04:35:04.052Z,1.60
2023-03-26T04:37:39.799Z,1.77
2023-03-26T04:40:20.627Z,1.00
2023-03-26T04:42:58.496Z,1.95
2023-03-26T04:45:45.910Z,2.22
2023-03-26T04:48:15.948Z,1.48
2023-03-26T04:50:44.279Z,1.80
2023-03-26T04:53:18.091Z,1.50
2023-03-26T04:56:03.749Z,1.80
2023-03-26T04:59:03.611Z,1.45
2023-03-26T05:01:37.933Z,1.85
2023-03-26T05:04:06.330Z,1.80
2023-03-26T05:06:34.478Z,1.65
2023-03-26T05:09:06.977Z,2.08
2023-03-26T05:12:02.771Z,1.42
2023-03-26T05:14:37.785Z,1.88
2023-03-26T05:17:10.930Z,1.58
2023-03-26T05:19:39.121Z,0.98
2023-03-26T05:22:06.194Z,1.70
2023-03-26T05:24:37.125Z,2.22
2023-03-26T05:27:05.627Z,1.70
2023-03-26T05:29:34.838Z,1.85
2023-03-26T05:32:01.921Z,1.67
2023-03-26T05:34:29.097Z,1.95
2023-03-26T05:36:56.406Z,1.75
2023-03-26T05:39:43.950Z,1.10
2023-03-26T05:42:37.278Z,1.55
2023-03-26T05:45:27.526Z,1.70
2023-03-26T05:47:56.436Z,2.13
2023-03-26T05:50:25.592Z,1.95
2023-03-26T05:52:57.475Z,1.73
2023-03-26T05:55:34.888Z,2.47
2023-03-26T05:58:20.144Z,2.15
2023-03-26T06:01:05.988Z,1.90
2023-03-26T06:03:53.209Z,1.48
2023-03-26T06:06:21.813Z,1.00
2023-03-26T06:09:02.329Z,2.10
2023-03-26T06:11:32.128Z,1.88
2023-03-26T06:14:01.161Z,1.98
2023-03-26T06:16:28.497Z,2.30
2023-03-26T06:19:05.589Z,2.58
2023-03-26T06:21:52.920Z,2.00
2023-03-26T06:24:23.629Z,1.60
2023-03-26T06:27:03.666Z,1.60
2023-03-26T06:32:37.976Z,1.45
2023-03-26T06:35:11.606Z,1.95
2023-03-26T06:37:38.684Z,1.70
2023-03-26T06:40:07.617Z,1.35
2023-03-26T06:43:08.087Z,1.58
2023-03-26T06:46:02.637Z,1.52
2023-03-26T06:49:05.638Z,1.65
2023-03-26T06:51:51.555Z,1.10
2023-03-26T06:54:37.744Z,1.35
2023-03-26T06:57:14.030Z,1.45
2023-03-26T06:59:50.349Z,2.28
2023-03-26T07:02:36.382Z,1.60
2023-03-26T07:05:22.672Z,1.35
2023-03-26T07:08:08.540Z,1.20
2023-03-26T07:11:08.333Z,0.90
2023-03-26T07:13:56.353Z,0.70
2023-03-26T07:17:02.126Z,0.90
2023-03-26T07:19:53.760Z,0.88
2023-03-26T07:22:25.873Z,0.70
2023-03-26T07:25:22.476Z,0.60
2023-03-26T07:28:39.601Z,0.70
2023-03-26T07:31:09.402Z,0.80
2023-03-26T07:34:04.047Z,1.05
2023-03-26T07:36:48.424Z,0.60
2023-03-26T07:39:57.837Z,0.68
2023-03-26T07:45:41.178Z,0.60
2023-03-26T07:48:49.935Z,0.38
2023-03-26T07:51:31.418Z,0.75
2023-03-26T07:54:25.083Z,0.43
2023-03-26T07:57:37.591Z,0.50
2023-03-26T08:00:52.538Z,0.50
2023-03-26T08:03:45.968Z,0.70
2023-03-26T08:06:37.371Z,0.47
2023-03-26T08:09:35.159Z,0.38
2023-03-26T08:12:50.405Z,0.60
2023-03-26T08:15:21.930Z,0.43
2023-03-26T08:17:58.493Z,0.50
2023-03-26T08:20:31.110Z,0.30
2023-03-26T08:23:07.921Z,0.38
2023-03-26T08:25:56.101Z,0.30
2023-03-26T08:28:49.715Z,0.52
2023-03-26T08:31:18.185Z,0.70
2023-03-26T08:33:45.388Z,0.43
2023-03-26T08:36:12.541Z,0.60
2023-03-26T08:38:39.562Z,0.20
2023-03-26T08:41:12.572Z,0.25
2023-03-26T08:43:58.563Z,0.43
2023-03-26T08:46:37.354Z,0.20
2023-03-26T08:49:36.618Z,0.50
2023-03-26T08:52:19.730Z,0.40
2023-03-26T08:54:57.408Z,0.25
2023-03-26T08:57:58.037Z,0.47
2023-03-26T09:00:54.057Z,0.15
2023-03-26T09:03:36.003Z,0.30
2023-03-26T09:06:24.225Z,0.22
2023-03-26T09:09:07.442Z,0.40
2023-03-26T09:11:46.241Z,0.25
2023-03-26T09:14:29.468Z,0.20
2023-03-26T09:17:34.159Z,0.40
2023-03-26T09:20:20.232Z,0.32
2023-03-26T09:23:23.940Z,0.28
2023-03-26T09:26:32.746Z,0.15
2023-03-26T09:29:36.568Z,0.20
2023-03-26T09:32:18.351Z,0.22
2023-03-26T09:35:27.511Z,0.40
2023-03-26T09:38:10.845Z,0.10
2023-03-26T09:40:48.416Z,0.20
2023-03-26T09:43:24.317Z,0.10
2023-03-26T09:45:57.211Z,0.28
2023-03-26T09:48:48.585Z,0.30
2023-03-26T09:51:51.997Z,0.30
2023-03-26T09:54:48.276Z,0.10
2023-03-26T09:57:23.506Z,0.28
2023-03-26T10:00:13.698Z,0.30
2023-03-26T10:03:14.689Z,0.10
2023-03-26T10:05:44.870Z,0.30
2023-03-26T10:08:32.095Z,0.20
2023-03-26T10:11:53.384Z,0.30
2023-03-26T10:14:30.290Z,0.28
2023-03-26T10:17:25.640Z,0.10
2023-03-26T10:20:11.228Z,0.32
2023-03-26T10:22:47.206Z,0.30
2023-03-26T10:25:17.545Z,0.30
2023-03-26T10:28:22.845Z,0.15
2023-03-26T10:31:06.498Z,0.30
2023-03-26T10:33:56.904Z,0.45
2023-03-26T10:36:37.136Z,0.50
2023-03-26T10:39:51.515Z,0.17
2023-03-26T10:42:37.207Z,0.30
2023-03-26T10:45:21.499Z,0.40
2023-03-26T10:48:04.425Z,0.40
2023-03-26T10:50:49.644Z,0.22
2023-03-26T10:53:28.364Z,0.30
2023-03-26T10:56:29.882Z,0.30
2023-03-26T10:58:57.360Z,0.40
2023-03-26T11:01:46.065Z,0.20
2023-03-26T11:04:28.717Z,0.57
2023-03-26T11:07:05.069Z,0.30
2023-03-26T11:09:44.543Z,0.38
2023-03-26T11:12:34.754Z,0.45
2023-03-26T11:15:07.626Z,0.50
2023-03-26T11:17:45.909Z,0.30
2023-03-26T11:20:33.906Z,0.40
2023-03-26T11:23:24.395Z,0.30
2023-03-26T11:26:17.367Z,0.40
2023-03-26T11:29:33.590Z,0.38
2023-03-26T11:32:06.195Z,0.30
2023-03-26T11:34:48.728Z,0.20
2023-03-26T11:37:44.201Z,0.30
2023-03-26T11:40:33.722Z,0.20
2023-03-26T11:43:07.580Z,0.40
2023-03-26T11:45:39.313Z,0.20
2023-03-26T11:48:49.724Z,0.20
2023-03-26T11:51:20.571Z,0.43
2023-03-26T11:53:48.793Z,0.22
2023-03-26T11:56:30.666Z,0.25
2023-03-26T11:59:01.522Z,0.43
2023-03-26T12:01:41.852Z,0.30
2023-03-26T12:04:15.507Z,0.30
2023-03-26T12:06:57.751Z,0.40
2023-03-26T12:09:25.829Z,0.40
2023-03-26T12:11:59.819Z,0.30
2023-03-26T12:14:29.823Z,0.60
2023-03-26T12:17:00.262Z,0.45
2023-03-26T12:19:29.130Z,0.40
2023-03-26T12:21:56.595Z,0.57
2023-03-26T12:24:35.352Z,0.35
2023-03-26T12:27:26.046Z,0.40
2023-03-26T12:30:05.218Z,0.40
2023-03-26T12:32:43.343Z,0.40
2023-03-26T12:35:34.346Z,0.50
2023-03-26T12:38:24.397Z,0.40
2023-03-26T12:42:25.968Z,0.60
2023-03-26T12:44:46.702Z,0.65
2023-03-26T12:48:00.199Z,0.50
2023-03-26T12:50:34.286Z,0.47
2023-03-26T12:53:18.081Z,0.55
2023-03-26T12:55:56.607Z,0.60
2023-03-26T12:58:38.644Z,0.50
2023-03-26T13:01:34.450Z,0.60
2023-03-26T13:04:20.033Z,0.50
2023-03-26T13:07:00.582Z,0.40
2023-03-26T13:09:52.770Z,0.60
2023-03-26T13:13:05.128Z,0.70
2023-03-26T13:15:41.482Z,0.60
2023-03-26T13:18:26.159Z,0.55
2023-03-26T13:21:02.226Z,0.32
2023-03-26T13:23:33.135Z,0.55
2023-03-26T13:26:11.910Z,0.70
2023-03-26T13:28:46.914Z,0.80
2023-03-26T13:31:29.757Z,0.75
2023-03-26T13:34:16.207Z,0.82
2023-03-26T13:37:10.225Z,0.70
2023-03-26T13:39:52.956Z,0.70
2023-03-26T13:42:42.784Z,0.70
2023-03-26T13:45:28.623Z,0.60
2023-03-26T13:47:59.194Z,0.90
2023-03-26T13:50:27.757Z,0.90
2023-03-26T13:53:07.408Z,1.17
2023-03-26T13:55:37.544Z,0.60
2023-03-26T13:59:01.700Z,0.82
2023-03-26T14:01:51.285Z,0.80
2023-03-26T14:04:32.319Z,0.98
2023-03-26T14:07:33.205Z,1.08
2023-03-26T14:10:17.105Z,1.20
2023-03-26T14:13:02.409Z,1.15
2023-03-26T14:16:03.362Z,1.38
2023-03-26T14:19:15.012Z,1.50
2023-03-26T14:21:58.517Z,1.70
2023-03-26T14:24:31.611Z,1.90
2023-03-26T14:27:44.068Z,2.50
2023-03-26T14:30:28.620Z,2.45
2023-03-26T14:33:03.239Z,2.20
2023-03-26T14:35:54.875Z,1.92
2023-03-26T14:38:43.402Z,2.00
2023-03-26T14:41:28.910Z,2.00
2023-03-26T14:44:01.534Z,2.00
2023-03-26T14:47:07.492Z,1.65
2023-03-26T14:49:40.366Z,1.90
2023-03-26T14:52:40.235Z,1.77
2023-03-26T14:55:31.810Z,1.67
2023-03-26T14:58:38.792Z,1.70
2023-03-26T15:01:20.802Z,1.75
2023-03-26T15:04:14.580Z,1.70
2023-03-26T15:07:02.850Z,1.90
2023-03-26T15:10:03.432Z,1.92
2023-03-26T15:12:44.448Z,1.60
2023-03-26T15:15:30.804Z,1.35
2023-03-26T15:18:12.519Z,2.00
2023-03-26T15:20:50.983Z,1.27
2023-03-26T15:23:48.360Z,1.35
2023-03-26T15:26:37.078Z,1.30
2023-03-26T15:29:13.165Z,1.30
2023-03-26T15:32:07.527Z,1.15
2023-03-26T15:35:09.749Z,1.10
2023-03-26T15:37:46.398Z,1.27
2023-03-26T15:40:19.171Z,1.40
2023-03-26T15:42:57.988Z,1.38
2023-03-26T15:45:31.287Z,1.33
2023-03-26T15:48:25.909Z,1.33
2023-03-26T15:54:09.113Z,1.75
2023-03-26T15:56:53.221Z,1.80
2023-03-26T16:02:16.360Z,1.80
2023-03-26T16:04:52.340Z,1.92
2023-03-26T16:07:58.871Z,1.98
2023-03-26T16:10:31.966Z,2.00
2023-03-26T16:13:19.946Z,1.83
2023-03-26T16:16:04.845Z,1.88
2023-03-26T16:18:37.517Z,2.33
2023-03-26T16:21:32.467Z,2.60
2023-03-26T16:24:02.783Z,2.90
2023-03-26T16:26:53.991Z,2.38
2023-03-26T16:29:24.044Z,2.50
2023-03-26T16:32:09.120Z,2.63
2023-03-26T16:34:49.114Z,2.63
2023-03-26T16:37:51.770Z,2.47
2023-03-26T16:40:20.805Z,2.45
2023-03-26T16:43:12.084Z,2.78
2023-03-26T16:46:07.003Z,2.80
2023-03-26T16:49:01.361Z,3.28
2023-03-26T16:51:40.400Z,4.60
2023-03-26T16:54:45.986Z,5.45
2023-03-26T16:57:27.157Z,4.60
2023-03-26T17:00:16.547Z,4.43
2023-03-26T17:02:49.766Z,5.03
2023-03-26T17:05:54.089Z,3.57
2023-03-26T17:08:44.457Z,3.85
2023-03-26T17:11:40.061Z,3.78
2023-03-26T17:14:07.030Z,3.92
2023-03-26T17:17:02.993Z,4.15
2023-03-26T17:19:56.355Z,4.30
2023-03-26T17:22:37.181Z,3.00
2023-03-26T17:25:35.772Z,3.10
2023-03-26T17:28:27.437Z,3.53
2023-03-26T17:31:05.060Z,3.58
2023-03-26T17:33:38.790Z,3.58
2023-03-26T17:36:12.094Z,2.90
2023-03-26T17:38:39.059Z,2.80
2023-03-26T17:41:11.389Z,2.97
2023-03-26T17:43:50.254Z,2.78
2023-03-26T17:46:33.218Z,2.35
2023-03-26T17:49:12.429Z,3.20
2023-03-26T17:51:45.261Z,2.63
2023-03-26T17:54:44.222Z,2.20
2023-03-26T17:57:47.016Z,3.15
2023-03-26T18:00:22.924Z,1.20
2023-03-26T18:02:55.319Z,2.28
2023-03-26T18:05:26.625Z,2.70
2023-03-26T18:08:14.354Z,2.45
2023-03-26T18:10:44.429Z,2.30
2023-03-26T18:13:29.584Z,2.35
2023-03-26T18:16:16.924Z,1.00
2023-03-26T18:18:54.186Z,2.88
2023-03-26T18:21:32.913Z,2.42
2023-03-26T18:24:01.130Z,2.70
2023-03-26T18:26:39.543Z,2.40
2023-03-26T18:29:26.112Z,2.30
2023-03-26T18:32:03.980Z,1.75
2023-03-26T18:34:33.504Z,2.38
2023-03-26T18:37:14.870Z,3.20
2023-03-26T18:39:59.560Z,1.92
2023-03-26T18:42:29.145Z,1.98
2023-03-26T18:45:00.553Z,1.80
2023-03-26T18:47:30.619Z,2.80
2023-03-26T18:50:00.131Z,3.10
2023-03-26T18:52:29.634Z,1.52
2023-03-26T18:54:59.213Z,2.35
2023-03-26T18:57:28.877Z,2.25
2023-03-26T19:00:09.035Z,1.42
2023-03-26T19:02:36.696Z,2.38
2023-03-26T19:05:04.325Z,1.60
2023-03-26T19:07:31.669Z,2.55
2023-03-26T19:10:01.367Z,2.38
2023-03-26T19:12:32.928Z,1.98
2023-03-26T19:15:12.109Z,1.48
2023-03-26T19:17:45.505Z,1.23
2023-03-26T19:20:19.506Z,2.63
2023-03-26T19:22:47.745Z,1.17
2023-03-26T19:25:29.163Z,1.52
2023-03-26T19:27:56.397Z,1.90
2023-03-26T19:30:30.909Z,1.95
2023-03-26T19:33:13.677Z,1.95
2023-03-26T19:35:43.557Z,2.38
2023-03-26T19:38:37.893Z,0.90
2023-03-26T19:41:08.122Z,2.95
2023-03-26T19:43:35.289Z,1.92
2023-03-26T19:46:02.452Z,1.50
2023-03-26T19:48:46.047Z,1.48
2023-03-26T19:51:24.149Z,1.40
2023-03-26T19:53:58.285Z,1.23
2023-03-26T19:58:53.043Z,1.20
2023-03-26T20:01:27.362Z,1.90
2023-03-26T20:04:01.722Z,1.88
2023-03-26T20:06:41.819Z,1.67
2023-03-26T20:09:10.923Z,1.00
2023-03-26T20:11:39.812Z,1.60
2023-03-26T20:14:19.970Z,1.02
2023-03-26T20:16:47.120Z,1.00
2023-03-26T20:19:15.389Z,2.08
2023-03-26T20:21:43.488Z,1.60
2023-03-26T20:24:16.118Z,1.73
2023-03-26T20:26:44.311Z,2.08
2023-03-26T20:29:11.723Z,1.17
2023-03-26T20:31:41.602Z,2.13
2023-03-26T20:34:21.988Z,0.90
2023-03-26T20:36:55.107Z,2.00
2023-03-26T20:39:25.714Z,1.90
2023-03-26T20:41:54.472Z,0.88
2023-03-26T20:44:22.537Z,1.83
2023-03-26T20:46:50.672Z,1.00
2023-03-26T20:49:18.446Z,1.65
2023-03-26T20:51:48.313Z,1.48
2023-03-26T20:54:21.586Z,2.20
2023-03-26T20:56:49.509Z,1.80
2023-03-26T20:59:21.706Z,0.90
2023-03-26T21:01:50.390Z,0.82
2023-03-26T21:04:19.283Z,1.45
2023-03-26T21:06:46.854Z,1.70
2023-03-26T21:09:17.673Z,1.10
2023-03-26T21:12:08.111Z,1.00
2023-03-26T21:14:41.870Z,0.70
2023-03-26T21:17:20.763Z,1.05
2023-03-26T21:19:49.260Z,0.88
2023-03-26T21:22:38.632Z,1.23
2023-03-26T21:25:17.367Z,1.05
2023-03-26T21:27:59.536Z,1.38
2023-03-26T21:30:27.196Z,1.25
2023-03-26T21:32:54.366Z,0.80
2023-03-26T21:35:21.957Z,1.30
2023-03-26T21:37:49.398Z,1.58
2023-03-26T21:40:18.057Z,0.88
2023-03-26T21:42:51.047Z,1.38
2023-03-26T21:45:19.420Z,1.45
2023-03-26T21:47:46.823Z,1.27
2023-03-26T21:50:19.501Z,1.02
2023-03-26T21:52:47.188Z,0.95
2023-03-26T21:55:18.172Z,0.70
2023-03-26T21:57:50.998Z,1.80
2023-03-26T22:00:18.868Z,1.00
2023-03-26T22:02:57.489Z,1.00
2023-03-26T22:06:09.488Z,0.98
2023-03-26T22:08:39.344Z,0.50
2023-03-26T22:11:07.662Z,0.80
2023-03-26T22:13:38.845Z,0.80
2023-03-26T22:16:07.814Z,0.77
2023-03-26T22:18:35.339Z,1.02
2023-03-26T22:21:02.949Z,0.98
2023-03-26T22:23:36.540Z,1.58
2023-03-26T22:26:05.025Z,0.73
2023-03-26T22:28:32.401Z,0.60
2023-03-26T22:30:59.932Z,1.05
2023-03-26T22:33:27.112Z,1.13
2023-03-26T22:35:56.178Z,0.80
2023-03-26T22:38:23.729Z,0.85
2023-03-26T22:40:58.051Z,0.80
2023-03-26T22:43:25.531Z,1.20
2023-03-26T22:45:54.670Z,1.33
2023-03-26T22:48:23.719Z,0.45
2023-03-26T22:51:02.009Z,0.77
2023-03-26T22:53:29.350Z,1.13
2023-03-26T22:55:56.495Z,1.25
2023-03-26T22:58:23.944Z,1.00
2023-03-26T23:00:52.224Z,0.90
2023-03-26T23:03:34.915Z,1.88
2023-03-26T23:06:06.305Z,1.35
2023-03-26T23:08:34.512Z,1.35
2023-03-26T23:11:02.111Z,1.10
2023-03-26T23:13:29.239Z,1.48
2023-03-26T23:15:57.305Z,1.15
2023-03-26T23:18:24.814Z,1.77
2023-03-26T23:20:55.562Z,0.88
2023-03-26T23:23:30.981Z,0.80
2023-03-26T23:26:03.194Z,0.73
2023-03-26T23:28:32.194Z,0.70
2023-03-26T23:31:05.184Z,1.63
2023-03-26T23:33:35.542Z,0.95
2023-03-26T23:36:08.895Z,1.25
2023-03-26T23:38:43.553Z,0.85
2023-03-26T23:41:15.777Z,0.73
2023-03-26T23:43:54.878Z,0.85
2023-03-26T23:46:30.962Z,1.25
2023-03-26T23:49:00.218Z,0.90
2023-03-26T23:51:27.319Z,0.93
2023-03-26T23:53:54.365Z,1.00
2023-03-26T23:56:21.782Z,0.93
2023-03-26T23:58:49.207Z,0.90
